sensor_id;sensor_type;location;lat;lon;timestamp;pressure;altitude;pressure_sealevel;temperature;humidity
78841;BME280;68379;47.190;27.558;2023-07-08T00:00:52;99788.23;;;17.26;99.82
78841;BME280;68379;47.190;27.558;2023-07-08T00:03:41;99788.02;;;17.24;99.99
78841;BME280;68379;47.190;27.558;2023-07-08T00:06:15;99785.47;;;17.22;99.99
78841;BME280;68379;47.190;27.558;2023-07-08T00:08:45;99779.06;;;17.19;100.00
78841;BME280;68379;47.190;27.558;2023-07-08T00:11:15;99774.79;;;17.16;100.00
78841;BME280;68379;47.190;27.558;2023-07-08T00:13:45;99782.49;;;17.13;100.00
78841;BME280;68379;47.190;27.558;2023-07-08T00:16:15;99781.76;;;17.09;100.00
78841;BME280;68379;47.190;27.558;2023-07-08T00:18:45;99781.19;;;17.04;100.00
78841;BME280;68379;47.190;27.558;2023-07-08T00:21:16;99772.44;;;17.01;100.00
78841;BME280;68379;47.190;27.558;2023-07-08T00:23:46;99777.60;;;16.98;100.00
78841;BME280;68379;47.190;27.558;2023-07-08T00:26:18;99787.98;;;16.98;100.00
78841;BME280;68379;47.190;27.558;2023-07-08T00:28:48;99792.15;;;16.97;100.00
78841;BME280;68379;47.190;27.558;2023-07-08T00:31:17;99789.15;;;16.96;100.00
78841;BME280;68379;47.190;27.558;2023-07-08T00:33:53;99796.31;;;16.96;100.00
78841;BME280;68379;47.190;27.558;2023-07-08T00:36:24;99794.64;;;16.97;100.00
78841;BME280;68379;47.190;27.558;2023-07-08T00:38:54;99796.59;;;16.97;100.00
78841;BME280;68379;47.190;27.558;2023-07-08T00:41:27;99792.77;;;16.98;100.00
78841;BME280;68379;47.190;27.558;2023-07-08T00:43:58;99795.33;;;16.97;100.00
78841;BME280;68379;47.190;27.558;2023-07-08T00:46:35;99796.18;;;16.98;100.00
78841;BME280;68379;47.190;27.558;2023-07-08T00:49:23;99791.48;;;16.96;100.00
78841;BME280;68379;47.190;27.558;2023-07-08T00:51:53;99790.48;;;16.95;100.00
78841;BME280;68379;47.190;27.558;2023-07-08T00:54:22;99784.45;;;16.92;100.00
78841;BME280;68379;47.190;27.558;2023-07-08T00:56:53;99783.62;;;16.91;100.00
78841;BME280;68379;47.190;27.558;2023-07-08T00:59:26;99786.84;;;16.91;100.00
78841;BME280;68379;47.190;27.558;2023-07-08T01:02:00;99786.56;;;16.90;100.00
78841;BME280;68379;47.190;27.558;2023-07-08T01:04:34;99783.52;;;16.87;100.00
78841;BME280;68379;47.190;27.558;2023-07-08T01:07:11;99791.39;;;16.84;100.00
78841;BME280;68379;47.190;27.558;2023-07-08T01:09:43;99792.58;;;16.83;100.00
78841;BME280;68379;47.190;27.558;2023-07-08T01:12:17;99792.44;;;16.79;100.00
78841;BME280;68379;47.190;27.558;2023-07-08T01:14:48;99792.73;;;16.77;100.00
78841;BME280;68379;47.190;27.558;2023-07-08T01:17:17;99792.47;;;16.76;100.00
78841;BME280;68379;47.190;27.558;2023-07-08T01:19:46;99790.27;;;16.74;100.00
78841;BME280;68379;47.190;27.558;2023-07-08T01:22:16;99788.27;;;16.72;100.00
78841;BME280;68379;47.190;27.558;2023-07-08T01:24:45;99793.55;;;16.70;100.00
78841;BME280;68379;47.190;27.558;2023-07-08T01:27:17;99796.23;;;16.67;100.00
78841;BME280;68379;47.190;27.558;2023-07-08T01:29:47;99796.28;;;16.64;100.00
78841;BME280;68379;47.190;27.558;2023-07-08T01:32:16;99795.45;;;16.60;100.00
78841;BME280;68379;47.190;27.558;2023-07-08T01:34:47;99791.89;;;16.57;100.00
78841;BME280;68379;47.190;27.558;2023-07-08T01:37:33;99795.84;;;16.54;100.00
78841;BME280;68379;47.190;27.558;2023-07-08T01:40:32;99791.51;;;16.49;100.00
78841;BME280;68379;47.190;27.558;2023-07-08T01:43:03;99793.10;;;16.44;100.00
78841;BME280;68379;47.190;27.558;2023-07-08T01:45:37;99798.73;;;16.39;100.00
78841;BME280;68379;47.190;27.558;2023-07-08T01:48:11;99799.68;;;16.36;100.00
78841;BME280;68379;47.190;27.558;2023-07-08T01:50:44;99796.27;;;16.31;100.00
78841;BME280;68379;47.190;27.558;2023-07-08T01:53:20;99805.70;;;16.25;100.00
78841;BME280;68379;47.190;27.558;2023-07-08T01:55:50;99802.88;;;16.19;100.00
78841;BME280;68379;47.190;27.558;2023-07-08T01:58:19;99806.59;;;16.14;100.00
78841;BME280;68379;47.190;27.558;2023-07-08T02:00:48;99803.16;;;16.09;100.00
78841;BME280;68379;47.190;27.558;2023-07-08T02:03:17;99803.91;;;16.05;100.00
78841;BME280;68379;47.190;27.558;2023-07-08T02:05:46;99801.40;;;16.00;100.00
78841;BME280;68379;47.190;27.558;2023-07-08T02:08:15;99791.93;;;15.95;100.00
78841;BME280;68379;47.190;27.558;2023-07-08T02:10:50;99796.89;;;15.92;100.00
78841;BME280;68379;47.190;27.558;2023-07-08T02:13:20;99799.70;;;15.90;100.00
78841;BME280;68379;47.190;27.558;2023-07-08T02:15:50;99797.30;;;15.86;100.00
78841;BME280;68379;47.190;27.558;2023-07-08T02:18:19;99805.27;;;15.81;100.00
78841;BME280;68379;47.190;27.558;2023-07-08T02:20:48;99800.07;;;15.72;100.00
78841;BME280;68379;47.190;27.558;2023-07-08T02:23:17;99799.77;;;15.68;100.00
78841;BME280;68379;47.190;27.558;2023-07-08T02:25:52;99805.20;;;15.64;100.00
78841;BME280;68379;47.190;27.558;2023-07-08T02:28:22;99803.84;;;15.60;100.00
78841;BME280;68379;47.190;27.558;2023-07-08T02:30:51;99809.30;;;15.55;100.00
78841;BME280;68379;47.190;27.558;2023-07-08T02:33:20;99816.02;;;15.50;100.00
78841;BME280;68379;47.190;27.558;2023-07-08T02:35:56;99813.05;;;15.46;100.00
78841;BME280;68379;47.190;27.558;2023-07-08T02:38:25;99815.27;;;15.42;100.00
78841;BME280;68379;47.190;27.558;2023-07-08T02:40:54;99818.05;;;15.37;100.00
78841;BME280;68379;47.190;27.558;2023-07-08T02:43:23;99814.85;;;15.34;100.00
78841;BME280;68379;47.190;27.558;2023-07-08T02:45:52;99822.01;;;15.30;100.00
78841;BME280;68379;47.190;27.558;2023-07-08T02:48:21;99817.60;;;15.26;100.00
78841;BME280;68379;47.190;27.558;2023-07-08T02:50:50;99808.20;;;15.23;100.00
78841;BME280;68379;47.190;27.558;2023-07-08T02:53:19;99816.38;;;15.20;100.00
78841;BME280;68379;47.190;27.558;2023-07-08T02:55:48;99811.75;;;15.17;100.00
78841;BME280;68379;47.190;27.558;2023-07-08T02:58:17;99813.75;;;15.13;100.00
78841;BME280;68379;47.190;27.558;2023-07-08T03:00:46;99816.19;;;15.11;100.00
78841;BME280;68379;47.190;27.558;2023-07-08T03:03:20;99820.61;;;15.08;100.00
78841;BME280;68379;47.190;27.558;2023-07-08T03:05:56;99815.22;;;15.06;100.00
78841;BME280;68379;47.190;27.558;2023-07-08T03:08:27;99816.64;;;15.03;100.00
78841;BME280;68379;47.190;27.558;2023-07-08T03:10:57;99826.16;;;15.02;100.00
78841;BME280;68379;47.190;27.558;2023-07-08T03:13:27;99820.42;;;14.99;100.00
78841;BME280;68379;47.190;27.558;2023-07-08T03:15:56;99811.32;;;14.97;100.00
78841;BME280;68379;47.190;27.558;2023-07-08T03:18:27;99816.40;;;14.95;100.00
78841;BME280;68379;47.190;27.558;2023-07-08T03:20:57;99812.56;;;14.91;100.00
78841;BME280;68379;47.190;27.558;2023-07-08T03:23:26;99817.30;;;14.88;100.00
78841;BME280;68379;47.190;27.558;2023-07-08T03:25:55;99822.04;;;14.86;100.00
78841;BME280;68379;47.190;27.558;2023-07-08T03:28:24;99821.11;;;14.84;100.00
78841;BME280;68379;47.190;27.558;2023-07-08T03:30:54;99821.48;;;14.84;100.00
78841;BME280;68379;47.190;27.558;2023-07-08T03:33:23;99827.35;;;14.84;100.00
78841;BME280;68379;47.190;27.558;2023-07-08T03:35:52;99827.15;;;14.81;100.00
78841;BME280;68379;47.190;27.558;2023-07-08T03:38:20;99822.30;;;14.79;100.00
78841;BME280;68379;47.190;27.558;2023-07-08T03:40:50;99819.13;;;14.79;100.00
78841;BME280;68379;47.190;27.558;2023-07-08T03:43:19;99821.10;;;14.78;100.00
78841;BME280;68379;47.190;27.558;2023-07-08T03:45:48;99820.20;;;14.78;100.00
78841;BME280;68379;47.190;27.558;2023-07-08T03:48:17;99818.42;;;14.78;100.00
78841;BME280;68379;47.190;27.558;2023-07-08T03:50:46;99820.46;;;14.77;100.00
78841;BME280;68379;47.190;27.558;2023-07-08T03:53:15;99822.27;;;14.76;100.00
78841;BME280;68379;47.190;27.558;2023-07-08T03:55:44;99828.81;;;14.77;100.00
78841;BME280;68379;47.190;27.558;2023-07-08T03:58:13;99820.31;;;14.76;100.00
78841;BME280;68379;47.190;27.558;2023-07-08T04:00:42;99825.99;;;14.77;100.00
78841;BME280;68379;47.190;27.558;2023-07-08T04:03:12;99824.95;;;14.76;100.00
78841;BME280;68379;47.190;27.558;2023-07-08T04:05:41;99829.16;;;14.77;100.00
78841;BME280;68379;47.190;27.558;2023-07-08T04:08:10;99837.30;;;14.78;100.00
78841;BME280;68379;47.190;27.558;2023-07-08T04:10:39;99834.61;;;14.78;100.00
78841;BME280;68379;47.190;27.558;2023-07-08T04:13:08;99835.33;;;14.78;100.00
78841;BME280;68379;47.190;27.558;2023-07-08T04:15:37;99838.56;;;14.78;100.00
78841;BME280;68379;47.190;27.558;2023-07-08T04:18:06;99844.65;;;14.77;100.00
78841;BME280;68379;47.190;27.558;2023-07-08T04:20:35;99848.30;;;14.75;100.00
78841;BME280;68379;47.190;27.558;2023-07-08T04:23:04;99848.48;;;14.75;100.00
78841;BME280;68379;47.190;27.558;2023-07-08T04:25:33;99854.74;;;14.74;100.00
78841;BME280;68379;47.190;27.558;2023-07-08T04:28:02;99855.06;;;14.75;100.00
78841;BME280;68379;47.190;27.558;2023-07-08T04:30:31;99863.98;;;14.75;100.00
78841;BME280;68379;47.190;27.558;2023-07-08T04:33:00;99861.90;;;14.74;100.00
78841;BME280;68379;47.190;27.558;2023-07-08T04:35:28;99861.44;;;14.73;100.00
78841;BME280;68379;47.190;27.558;2023-07-08T04:37:57;99856.19;;;14.71;100.00
78841;BME280;68379;47.190;27.558;2023-07-08T04:40:26;99860.79;;;14.71;100.00
78841;BME280;68379;47.190;27.558;2023-07-08T04:42:55;99856.16;;;14.71;100.00
78841;BME280;68379;47.190;27.558;2023-07-08T04:45:24;99862.08;;;14.71;100.00
78841;BME280;68379;47.190;27.558;2023-07-08T04:47:53;99857.31;;;14.70;99.95
78841;BME280;68379;47.190;27.558;2023-07-08T04:50:23;99856.23;;;14.70;99.86
78841;BME280;68379;47.190;27.558;2023-07-08T04:52:52;99859.71;;;14.68;99.54
78841;BME280;68379;47.190;27.558;2023-07-08T04:55:21;99859.61;;;14.67;99.51
78841;BME280;68379;47.190;27.558;2023-07-08T04:57:50;99857.89;;;14.66;99.37
78841;BME280;68379;47.190;27.558;2023-07-08T05:00:19;99856.82;;;14.66;99.44
78841;BME280;68379;47.190;27.558;2023-07-08T05:02:49;99861.60;;;14.66;99.56
78841;BME280;68379;47.190;27.558;2023-07-08T05:05:18;99863.03;;;14.66;99.20
78841;BME280;68379;47.190;27.558;2023-07-08T05:07:47;99861.69;;;14.68;99.30
78841;BME280;68379;47.190;27.558;2023-07-08T05:10:18;99862.13;;;14.70;99.46
78841;BME280;68379;47.190;27.558;2023-07-08T05:12:47;99865.42;;;14.71;99.11
78841;BME280;68379;47.190;27.558;2023-07-08T05:15:17;99865.88;;;14.72;99.02
78841;BME280;68379;47.190;27.558;2023-07-08T05:17:46;99862.77;;;14.74;99.04
78841;BME280;68379;47.190;27.558;2023-07-08T05:20:15;99858.39;;;14.76;99.16
78841;BME280;68379;47.190;27.558;2023-07-08T05:22:46;99858.21;;;14.79;98.86
78841;BME280;68379;47.190;27.558;2023-07-08T05:25:17;99850.90;;;14.80;98.22
78841;BME280;68379;47.190;27.558;2023-07-08T05:27:47;99854.71;;;14.84;98.30
78841;BME280;68379;47.190;27.558;2023-07-08T05:30:18;99855.82;;;14.87;98.05
78841;BME280;68379;47.190;27.558;2023-07-08T05:32:47;99856.12;;;14.91;97.96
78841;BME280;68379;47.190;27.558;2023-07-08T05:35:16;99860.91;;;14.94;97.95
78841;BME280;68379;47.190;27.558;2023-07-08T05:37:45;99861.48;;;14.97;97.76
78841;BME280;68379;47.190;27.558;2023-07-08T05:40:15;99864.96;;;14.98;97.56
78841;BME280;68379;47.190;27.558;2023-07-08T05:42:44;99867.70;;;15.00;97.44
78841;BME280;68379;47.190;27.558;2023-07-08T05:45:13;99860.77;;;15.00;97.23
78841;BME280;68379;47.190;27.558;2023-07-08T05:47:42;99865.13;;;15.02;97.03
78841;BME280;68379;47.190;27.558;2023-07-08T05:50:11;99870.11;;;15.02;97.29
78841;BME280;68379;47.190;27.558;2023-07-08T05:52:40;99869.72;;;15.02;97.18
78841;BME280;68379;47.190;27.558;2023-07-08T05:55:10;99872.69;;;15.00;96.41
78841;BME280;68379;47.190;27.558;2023-07-08T05:57:39;99869.85;;;14.97;96.43
78841;BME280;68379;47.190;27.558;2023-07-08T06:00:11;99874.54;;;14.96;96.44
78841;BME280;68379;47.190;27.558;2023-07-08T06:02:40;99877.22;;;14.96;96.44
78841;BME280;68379;47.190;27.558;2023-07-08T06:05:10;99873.29;;;14.96;95.89
78841;BME280;68379;47.190;27.558;2023-07-08T06:07:39;99873.58;;;14.97;95.87
78841;BME280;68379;47.190;27.558;2023-07-08T06:10:09;99874.54;;;15.02;96.30
78841;BME280;68379;47.190;27.558;2023-07-08T06:12:38;99877.37;;;15.02;95.92
78841;BME280;68379;47.190;27.558;2023-07-08T06:15:09;99878.99;;;15.05;96.20
78841;BME280;68379;47.190;27.558;2023-07-08T06:17:40;99877.92;;;15.08;96.19
78841;BME280;68379;47.190;27.558;2023-07-08T06:20:10;99878.95;;;15.12;96.02
78841;BME280;68379;47.190;27.558;2023-07-08T06:22:39;99879.98;;;15.12;94.91
78841;BME280;68379;47.190;27.558;2023-07-08T06:25:09;99882.40;;;15.20;95.23
78841;BME280;68379;47.190;27.558;2023-07-08T06:27:38;99885.83;;;15.25;94.81
78841;BME280;68379;47.190;27.558;2023-07-08T06:30:09;99883.31;;;15.32;94.37
78841;BME280;68379;47.190;27.558;2023-07-08T06:32:38;99882.50;;;15.43;94.90
78841;BME280;68379;47.190;27.558;2023-07-08T06:35:08;99887.30;;;15.49;93.71
78841;BME280;68379;47.190;27.558;2023-07-08T06:37:37;99885.33;;;15.58;94.25
78841;BME280;68379;47.190;27.558;2023-07-08T06:40:09;99886.23;;;15.70;94.14
78841;BME280;68379;47.190;27.558;2023-07-08T06:42:38;99888.59;;;15.82;93.69
78841;BME280;68379;47.190;27.558;2023-07-08T06:45:08;99888.90;;;15.91;93.44
78841;BME280;68379;47.190;27.558;2023-07-08T06:47:37;99892.16;;;15.99;93.39
78841;BME280;68379;47.190;27.558;2023-07-08T06:50:08;99895.16;;;16.05;92.68
78841;BME280;68379;47.190;27.558;2023-07-08T06:52:37;99900.79;;;16.09;91.35
78841;BME280;68379;47.190;27.558;2023-07-08T06:55:08;99898.38;;;16.17;90.92
78841;BME280;68379;47.190;27.558;2023-07-08T06:57:38;99896.46;;;16.28;91.37
78841;BME280;68379;47.190;27.558;2023-07-08T07:00:09;99898.45;;;16.39;91.60
78841;BME280;68379;47.190;27.558;2023-07-08T07:02:39;99904.57;;;16.49;91.06
78841;BME280;68379;47.190;27.558;2023-07-08T07:05:09;99893.81;;;16.56;90.13
78841;BME280;68379;47.190;27.558;2023-07-08T07:07:38;99902.21;;;16.64;89.63
78841;BME280;68379;47.190;27.558;2023-07-08T07:10:08;99904.84;;;16.68;89.53
78841;BME280;68379;47.190;27.558;2023-07-08T07:12:38;99904.53;;;16.70;87.73
78841;BME280;68379;47.190;27.558;2023-07-08T07:15:08;99910.23;;;16.78;88.20
78841;BME280;68379;47.190;27.558;2023-07-08T07:17:37;99914.20;;;16.84;87.53
78841;BME280;68379;47.190;27.558;2023-07-08T07:20:09;99912.70;;;16.90;86.73
78841;BME280;68379;47.190;27.558;2023-07-08T07:22:38;99913.06;;;16.95;87.73
78841;BME280;68379;47.190;27.558;2023-07-08T07:25:08;99914.83;;;17.04;87.44
78841;BME280;68379;47.190;27.558;2023-07-08T07:27:37;99912.37;;;17.07;86.22
78841;BME280;68379;47.190;27.558;2023-07-08T07:30:08;99917.27;;;17.14;86.55
78841;BME280;68379;47.190;27.558;2023-07-08T07:32:41;99918.77;;;17.18;86.55
78841;BME280;68379;47.190;27.558;2023-07-08T07:35:11;99918.29;;;17.19;85.76
78841;BME280;68379;47.190;27.558;2023-07-08T07:37:43;99921.41;;;17.26;86.12
78841;BME280;68379;47.190;27.558;2023-07-08T07:40:13;99920.73;;;17.34;86.40
78841;BME280;68379;47.190;27.558;2023-07-08T07:42:44;99922.48;;;17.46;85.94
78841;BME280;68379;47.190;27.558;2023-07-08T07:45:14;99924.00;;;17.50;84.34
78841;BME280;68379;47.190;27.558;2023-07-08T07:47:44;99928.98;;;17.63;85.03
78841;BME280;68379;47.190;27.558;2023-07-08T07:50:13;99931.56;;;17.75;85.11
78841;BME280;68379;47.190;27.558;2023-07-08T07:52:42;99936.36;;;17.84;83.70
78841;BME280;68379;47.190;27.558;2023-07-08T07:55:11;99931.70;;;17.95;84.15
78841;BME280;68379;47.190;27.558;2023-07-08T07:57:40;99932.67;;;18.01;81.43
78841;BME280;68379;47.190;27.558;2023-07-08T08:00:15;99932.88;;;18.16;83.62
78841;BME280;68379;47.190;27.558;2023-07-08T08:02:44;99930.17;;;18.27;83.23
78841;BME280;68379;47.190;27.558;2023-07-08T08:05:14;99934.76;;;18.33;81.41
78841;BME280;68379;47.190;27.558;2023-07-08T08:07:43;99928.38;;;18.33;79.74
78841;BME280;68379;47.190;27.558;2023-07-08T08:10:13;99930.23;;;18.39;82.15
78841;BME280;68379;47.190;27.558;2023-07-08T08:12:42;99929.39;;;18.48;83.50
78841;BME280;68379;47.190;27.558;2023-07-08T08:15:12;99934.55;;;18.49;80.89
78841;BME280;68379;47.190;27.558;2023-07-08T08:17:44;99935.86;;;18.55;80.42
78841;BME280;68379;47.190;27.558;2023-07-08T08:20:17;99930.47;;;18.58;79.35
78841;BME280;68379;47.190;27.558;2023-07-08T08:22:47;99941.06;;;18.60;77.03
78841;BME280;68379;47.190;27.558;2023-07-08T08:25:19;99931.89;;;18.77;79.09
78841;BME280;68379;47.190;27.558;2023-07-08T08:27:48;99935.27;;;18.81;76.07
78841;BME280;68379;47.190;27.558;2023-07-08T08:30:18;99943.91;;;18.98;77.69
78841;BME280;68379;47.190;27.558;2023-07-08T08:32:48;99940.87;;;19.11;75.65
78841;BME280;68379;47.190;27.558;2023-07-08T08:35:17;99946.56;;;19.26;76.38
78841;BME280;68379;47.190;27.558;2023-07-08T08:37:47;99948.85;;;19.38;76.65
78841;BME280;68379;47.190;27.558;2023-07-08T08:40:17;99948.75;;;19.47;76.90
78841;BME280;68379;47.190;27.558;2023-07-08T08:42:53;99955.61;;;19.51;76.23
78841;BME280;68379;47.190;27.558;2023-07-08T08:45:27;99956.25;;;19.47;74.84
78841;BME280;68379;47.190;27.558;2023-07-08T08:48:02;99956.08;;;19.54;76.54
78841;BME280;68379;47.190;27.558;2023-07-08T08:50:35;99962.16;;;19.57;75.40
78841;BME280;68379;47.190;27.558;2023-07-08T08:53:13;99964.63;;;19.55;74.11
78841;BME280;68379;47.190;27.558;2023-07-08T08:55:44;99966.09;;;19.62;74.59
78841;BME280;68379;47.190;27.558;2023-07-08T08:58:26;99965.40;;;19.67;74.65
78841;BME280;68379;47.190;27.558;2023-07-08T09:00:59;99968.06;;;19.72;76.10
78841;BME280;68379;47.190;27.558;2023-07-08T09:03:37;99965.86;;;19.68;74.04
78841;BME280;68379;47.190;27.558;2023-07-08T09:06:18;99967.20;;;19.66;74.91
78841;BME280;68379;47.190;27.558;2023-07-08T09:08:50;99970.98;;;19.66;75.22
78841;BME280;68379;47.190;27.558;2023-07-08T09:11:44;99970.04;;;19.64;74.22
78841;BME280;68379;47.190;27.558;2023-07-08T09:14:22;99971.17;;;19.69;74.64
78841;BME280;68379;47.190;27.558;2023-07-08T09:16:58;99971.09;;;19.75;75.73
78841;BME280;68379;47.190;27.558;2023-07-08T09:19:38;99973.48;;;19.71;75.20
78841;BME280;68379;47.190;27.558;2023-07-08T09:22:15;99973.70;;;19.76;75.49
78841;BME280;68379;47.190;27.558;2023-07-08T09:24:50;99977.77;;;19.84;74.74
78841;BME280;68379;47.190;27.558;2023-07-08T09:27:20;99974.91;;;19.86;73.48
78841;BME280;68379;47.190;27.558;2023-07-08T09:29:49;99974.37;;;19.83;73.52
78841;BME280;68379;47.190;27.558;2023-07-08T09:32:21;99972.48;;;19.89;73.73
78841;BME280;68379;47.190;27.558;2023-07-08T09:34:53;99974.72;;;19.95;74.75
78841;BME280;68379;47.190;27.558;2023-07-08T09:37:28;99976.48;;;19.89;71.71
78841;BME280;68379;47.190;27.558;2023-07-08T09:39:59;99977.27;;;19.83;72.64
78841;BME280;68379;47.190;27.558;2023-07-08T09:42:31;99973.51;;;19.78;72.67
78841;BME280;68379;47.190;27.558;2023-07-08T09:45:03;99972.70;;;19.75;73.72
78841;BME280;68379;47.190;27.558;2023-07-08T09:47:40;99972.70;;;19.72;74.58
78841;BME280;68379;47.190;27.558;2023-07-08T09:50:18;99971.27;;;19.70;73.93
78841;BME280;68379;47.190;27.558;2023-07-08T09:52:48;99970.27;;;19.74;73.59
78841;BME280;68379;47.190;27.558;2023-07-08T09:55:18;99970.97;;;19.74;72.35
78841;BME280;68379;47.190;27.558;2023-07-08T09:57:48;99969.73;;;19.69;72.39
78841;BME280;68379;47.190;27.558;2023-07-08T10:00:29;99974.06;;;19.71;73.07
78841;BME280;68379;47.190;27.558;2023-07-08T10:03:04;99973.50;;;19.69;72.44
78841;BME280;68379;47.190;27.558;2023-07-08T10:05:37;99971.36;;;19.68;72.34
78841;BME280;68379;47.190;27.558;2023-07-08T10:08:13;99973.08;;;19.67;71.14
78841;BME280;68379;47.190;27.558;2023-07-08T10:10:43;99970.84;;;19.66;70.81
78841;BME280;68379;47.190;27.558;2023-07-08T10:13:19;99969.45;;;19.70;70.36
78841;BME280;68379;47.190;27.558;2023-07-08T10:15:54;99970.45;;;19.76;70.88
78841;BME280;68379;47.190;27.558;2023-07-08T10:18:24;99972.11;;;19.85;70.78
78841;BME280;68379;47.190;27.558;2023-07-08T10:20:59;99972.32;;;19.94;71.35
78841;BME280;68379;47.190;27.558;2023-07-08T10:23:37;99971.67;;;20.07;69.63
78841;BME280;68379;47.190;27.558;2023-07-08T10:26:17;99968.92;;;20.15;68.68
78841;BME280;68379;47.190;27.558;2023-07-08T10:29:03;99964.76;;;20.24;67.41
78841;BME280;68379;47.190;27.558;2023-07-08T10:31:45;99973.09;;;20.40;66.24
78841;BME280;68379;47.190;27.558;2023-07-08T10:34:28;99968.20;;;20.49;66.02
78841;BME280;68379;47.190;27.558;2023-07-08T10:37:08;99965.43;;;20.64;67.97
78841;BME280;68379;47.190;27.558;2023-07-08T10:39:57;99960.54;;;20.76;65.89
78841;BME280;68379;47.190;27.558;2023-07-08T10:42:47;99958.20;;;20.78;64.62
78841;BME280;68379;47.190;27.558;2023-07-08T10:45:25;99961.67;;;20.80;64.23
78841;BME280;68379;47.190;27.558;2023-07-08T10:48:15;99963.36;;;20.82;63.28
78841;BME280;68379;47.190;27.558;2023-07-08T10:50:59;99963.50;;;20.84;62.46
78841;BME280;68379;47.190;27.558;2023-07-08T10:53:46;99963.73;;;20.79;61.99
78841;BME280;68379;47.190;27.558;2023-07-08T10:56:23;99954.95;;;20.74;61.05
78841;BME280;68379;47.190;27.558;2023-07-08T10:59:18;99956.08;;;20.73;60.28
78841;BME280;68379;47.190;27.558;2023-07-08T11:02:02;99958.63;;;20.75;60.38
78841;BME280;68379;47.190;27.558;2023-07-08T11:04:49;99954.14;;;20.75;59.73
78841;BME280;68379;47.190;27.558;2023-07-08T11:07:30;99949.36;;;20.76;58.38
78841;BME280;68379;47.190;27.558;2023-07-08T11:10:00;99953.34;;;20.81;58.57
78841;BME280;68379;47.190;27.558;2023-07-08T11:12:35;99954.08;;;20.83;57.96
78841;BME280;68379;47.190;27.558;2023-07-08T11:15:18;99949.34;;;20.88;58.66
78841;BME280;68379;47.190;27.558;2023-07-08T11:17:55;99950.13;;;20.92;58.31
78841;BME280;68379;47.190;27.558;2023-07-08T11:20:31;99950.04;;;20.97;59.45
78841;BME280;68379;47.190;27.558;2023-07-08T11:23:22;99946.88;;;20.99;58.75
78841;BME280;68379;47.190;27.558;2023-07-08T11:26:09;99949.45;;;21.03;59.25
78841;BME280;68379;47.190;27.558;2023-07-08T11:28:43;99948.20;;;21.00;58.88
78841;BME280;68379;47.190;27.558;2023-07-08T11:31:13;99950.55;;;21.02;59.34
78841;BME280;68379;47.190;27.558;2023-07-08T11:33:43;99949.30;;;21.04;59.86
78841;BME280;68379;47.190;27.558;2023-07-08T11:36:14;99943.39;;;21.06;59.02
78841;BME280;68379;47.190;27.558;2023-07-08T11:38:50;99944.41;;;21.07;58.56
78841;BME280;68379;47.190;27.558;2023-07-08T11:41:23;99939.21;;;21.11;59.18
78841;BME280;68379;47.190;27.558;2023-07-08T11:43:58;99940.95;;;21.14;59.41
78841;BME280;68379;47.190;27.558;2023-07-08T11:46:29;99943.89;;;21.22;59.50
78841;BME280;68379;47.190;27.558;2023-07-08T11:49:04;99946.08;;;21.22;57.13
78841;BME280;68379;47.190;27.558;2023-07-08T11:51:37;99943.98;;;21.26;56.67
78841;BME280;68379;47.190;27.558;2023-07-08T11:54:14;99941.05;;;21.33;56.88
78841;BME280;68379;47.190;27.558;2023-07-08T11:56:50;99940.52;;;21.39;56.67
78841;BME280;68379;47.190;27.558;2023-07-08T11:59:29;99937.52;;;21.49;57.05
78841;BME280;68379;47.190;27.558;2023-07-08T12:02:04;99934.77;;;21.56;55.87
78841;BME280;68379;47.190;27.558;2023-07-08T12:04:57;99933.43;;;21.68;55.43
78841;BME280;68379;47.190;27.558;2023-07-08T12:07:33;99935.20;;;21.86;55.78
78841;BME280;68379;47.190;27.558;2023-07-08T12:10:10;99924.46;;;22.04;56.13
78841;BME280;68379;47.190;27.558;2023-07-08T12:12:43;99922.91;;;22.23;55.46
78841;BME280;68379;47.190;27.558;2023-07-08T12:15:19;99923.17;;;22.42;54.59
78841;BME280;68379;47.190;27.558;2023-07-08T12:17:52;99927.73;;;22.62;54.35
78841;BME280;68379;47.190;27.558;2023-07-08T12:20:24;99924.45;;;22.83;53.81
78841;BME280;68379;47.190;27.558;2023-07-08T12:22:54;99925.25;;;22.96;52.23
78841;BME280;68379;47.190;27.558;2023-07-08T12:25:26;99923.28;;;23.08;52.57
78841;BME280;68379;47.190;27.558;2023-07-08T12:27:56;99918.76;;;23.12;51.60
78841;BME280;68379;47.190;27.558;2023-07-08T12:30:26;99919.11;;;23.18;51.55
78841;BME280;68379;47.190;27.558;2023-07-08T12:33:00;99925.64;;;23.22;49.79
78841;BME280;68379;47.190;27.558;2023-07-08T12:35:32;99925.89;;;23.19;50.18
78841;BME280;68379;47.190;27.558;2023-07-08T12:38:10;99919.02;;;23.13;50.03
78841;BME280;68379;47.190;27.558;2023-07-08T12:40:44;99919.80;;;23.17;50.63
78841;BME280;68379;47.190;27.558;2023-07-08T12:43:18;99917.34;;;23.26;50.66
78841;BME280;68379;47.190;27.558;2023-07-08T12:45:48;99918.84;;;23.23;49.47
78841;BME280;68379;47.190;27.558;2023-07-08T12:48:17;99928.68;;;23.20;48.92
78841;BME280;68379;47.190;27.558;2023-07-08T12:50:46;99926.58;;;23.19;49.23
78841;BME280;68379;47.190;27.558;2023-07-08T12:53:19;99925.81;;;23.20;49.57
78841;BME280;68379;47.190;27.558;2023-07-08T12:55:51;99928.52;;;23.28;48.49
78841;BME280;68379;47.190;27.558;2023-07-08T12:58:25;99927.33;;;23.29;47.78
78841;BME280;68379;47.190;27.558;2023-07-08T13:00:58;99921.23;;;23.21;47.08
78841;BME280;68379;47.190;27.558;2023-07-08T13:03:30;99924.17;;;23.26;48.08
78841;BME280;68379;47.190;27.558;2023-07-08T13:06:01;99927.36;;;23.29;46.95
78841;BME280;68379;47.190;27.558;2023-07-08T13:08:35;99927.93;;;23.34;46.77
78841;BME280;68379;47.190;27.558;2023-07-08T13:11:06;99923.77;;;23.48;47.72